createdAt,value
2023-02-06T00:01:06.882Z,494
2023-02-06T00:06:08.462Z,484.35088
2023-02-06T00:11:10.082Z,484.35088
2023-02-06T00:16:11.556Z,479.65217
2023-02-06T00:21:13.154Z,494
2023-02-06T00:26:14.968Z,494
2023-02-06T00:31:16.788Z,489.13274
2023-02-06T00:36:18.403Z,479.65217
2023-02-06T00:41:19.891Z,475.03448
2023-02-06T00:46:21.409Z,479.65217
2023-02-06T00:51:22.983Z,479.65217
2023-02-06T00:56:24.686Z,470.49573
2023-02-06T01:01:26.710Z,470.49573
2023-02-06T01:06:28.213Z,466.0339
2023-02-06T01:11:29.803Z,466.0339
2023-02-06T01:16:31.445Z,479.65217
2023-02-06T01:21:33.012Z,475.03448
2023-02-06T01:26:34.607Z,470.49573
2023-02-06T01:31:36.291Z,470.49573
2023-02-06T01:36:37.785Z,475.03448
2023-02-06T01:41:39.239Z,470.49573
2023-02-06T01:46:40.790Z,461.64706
2023-02-06T01:51:42.302Z,461.64706
2023-02-06T01:56:44.109Z,466.0339
2023-02-06T02:01:45.925Z,461.64706
2023-02-06T02:06:47.413Z,457.33333
2023-02-06T02:11:49.274Z,466.0339
2023-02-06T02:16:51.036Z,461.64706
2023-02-06T02:21:52.805Z,466.0339
2023-02-06T02:26:54.414Z,461.64706
2023-02-06T02:31:56.483Z,453.09091
2023-02-06T02:36:58.082Z,466.0339
2023-02-06T02:41:59.586Z,461.64706
2023-02-06T02:47:01.578Z,466.0339
2023-02-06T02:52:02.982Z,466.0339
2023-02-06T02:57:04.472Z,466.0339
2023-02-06T03:02:06.228Z,466.0339
2023-02-06T03:07:07.702Z,453.09091
2023-02-06T03:12:09.309Z,453.09091
2023-02-06T03:17:10.866Z,444.81301
2023-02-06T03:22:12.322Z,444.81301
2023-02-06T03:27:14.140Z,448.91803
2023-02-06T03:32:16.078Z,448.91803
2023-02-06T03:37:17.931Z,444.81301
2023-02-06T03:42:20.154Z,444.81301
2023-02-06T03:47:22.109Z,436.8
2023-02-06T03:52:23.934Z,425.25
2023-02-06T03:57:25.704Z,425.25
2023-02-06T04:02:27.717Z,429.03937
2023-02-06T04:07:29.179Z,425.25
2023-02-06T04:12:30.988Z,421.51938
2023-02-06T04:17:46.706Z,407.15789
2023-02-06T04:22:56.173Z,417.84615
2023-02-06T04:27:58.383Z,421.51938
2023-02-06T04:33:00.600Z,421.51938
2023-02-06T04:38:02.256Z,414.22901
2023-02-06T04:43:04.110Z,417.84615
2023-02-06T04:48:06.003Z,414.22901
2023-02-06T04:53:07.788Z,414.22901
2023-02-06T04:58:09.487Z,414.22901
2023-02-06T05:03:11.187Z,400.2963
2023-02-06T05:08:12.746Z,407.15789
2023-02-06T05:13:14.314Z,414.22901
2023-02-06T05:18:15.940Z,403.70149
2023-02-06T05:23:17.428Z,390.37681
2023-02-06T05:28:19.389Z,407.15789
2023-02-06T05:33:21.894Z,400.2963
2023-02-06T05:38:23.645Z,390.37681
2023-02-06T05:43:25.638Z,380.87943
2023-02-06T05:48:27.757Z,396.94118
2023-02-06T05:53:29.755Z,393.63504
2023-02-06T05:58:31.583Z,380.87943
2023-02-06T06:03:33.550Z,384
2023-02-06T06:08:35.089Z,360.21622
2023-02-06T06:13:36.785Z,365.91781
2023-02-06T06:18:38.239Z,363.04762
2023-02-06T06:23:39.884Z,360.21622
2023-02-06T06:28:41.582Z,371.77778
2023-02-06T06:33:43.798Z,360.21622
2023-02-06T06:38:45.447Z,380.87943
2023-02-06T06:43:47.418Z,393.63504
2023-02-06T06:48:49.111Z,396.94118
2023-02-06T06:53:51.057Z,377.80282
2023-02-06T06:58:52.870Z,403.70149
2023-02-06T07:03:54.889Z,414.22901
2023-02-06T07:08:56.556Z,429.03937
2023-02-06T07:13:58.412Z,421.51938
2023-02-06T07:19:00.388Z,421.51938
2023-02-06T07:24:02.402Z,432.88889
2023-02-06T07:29:03.891Z,421.51938
2023-02-06T07:34:05.858Z,429.03937
2023-02-06T07:39:07.302Z,432.88889
2023-02-06T07:44:08.999Z,425.25
2023-02-06T07:49:10.509Z,429.03937
2023-02-06T07:54:12.056Z,429.03937
2023-02-06T07:59:13.650Z,414.22901
2023-02-06T08:04:15.615Z,436.8
2023-02-06T08:09:17.141Z,444.81301
2023-02-06T08:14:18.862Z,444.81301
2023-02-06T08:19:20.378Z,453.09091
2023-02-06T08:24:21.945Z,489.13274
2023-02-06T08:29:23.540Z,484.35088
2023-02-06T08:34:26.305Z,489.13274
2023-02-06T08:39:27.887Z,484.35088
2023-02-06T08:44:29.615Z,466.0339
2023-02-06T08:49:31.046Z,484.35088
2023-02-06T08:54:35.530Z,536.30769
2023-02-06T08:59:38.316Z,536.30769
2023-02-06T09:04:39.989Z,572.57143
2023-02-06T09:09:41.551Z,599.31915
2023-02-06T09:14:43.137Z,652.04598
2023-02-06T09:19:44.594Z,579.05155
2023-02-06T09:24:46.456Z,613.56522
2023-02-06T09:29:48.542Z,636.13483
2023-02-06T09:34:50.221Z,652.04598
2023-02-06T09:39:51.670Z,620.92308
2023-02-06T09:44:53.354Z,599.31915
2023-02-06T09:49:54.838Z,686.16867
2023-02-06T09:54:56.359Z,704.49383
2023-02-06T09:59:57.933Z,628.44444
2023-02-06T10:04:59.715Z,644
2023-02-06T10:10:01.206Z,677.33333
2023-02-06T10:15:02.687Z,686.16867
2023-02-06T10:20:04.281Z,723.74684
2023-02-06T10:25:06.526Z,686.16867
2023-02-06T10:30:08.442Z,677.33333
2023-02-06T10:35:10.125Z,660.27907
2023-02-06T10:40:11.954Z,733.74359
2023-02-06T10:45:20.313Z,723.74684
2023-02-06T10:50:22.032Z,754.52632
2023-02-06T10:55:23.957Z,723.74684
2023-02-06T11:00:25.921Z,754.52632
2023-02-06T11:05:27.988Z,776.43243
2023-02-06T11:10:30.421Z,787.83562
2023-02-06T11:15:32.470Z,744
2023-02-06T11:20:34.743Z,695.21951
2023-02-06T11:25:37.158Z,744
2023-02-06T11:30:39.789Z,744
2023-02-06T11:35:42.329Z,744
2023-02-06T11:40:44.207Z,787.83562
2023-02-06T11:45:46.182Z,776.43243
2023-02-06T11:50:48.030Z,776.43243
2023-02-06T11:55:50.145Z,776.43243
2023-02-06T12:00:52.185Z,776.43243
2023-02-06T12:05:54.226Z,787.83562
2023-02-06T12:10:55.973Z,799.55556
2023-02-06T12:15:57.867Z,776.43243
2023-02-06T12:20:59.908Z,765.33333
2023-02-06T12:26:01.810Z,799.55556
2023-02-06T12:31:03.947Z,799.55556
2023-02-06T12:36:05.968Z,863.40299
2023-02-06T12:41:07.809Z,877.33333
2023-02-06T12:46:10.777Z,836.75362
2023-02-06T12:51:12.281Z,811.60563
2023-02-06T12:56:13.853Z,849.88235
2023-02-06T13:01:27.950Z,877.33333
2023-02-06T13:06:33.731Z,937.54839
2023-02-06T13:11:35.439Z,836.75362
2023-02-06T13:16:37.015Z,906.5
2023-02-06T13:21:38.641Z,877.33333
2023-02-06T13:26:40.344Z,937.54839
2023-02-06T13:31:41.940Z,970.66667
2023-02-06T13:36:43.711Z,953.83607
2023-02-06T13:41:45.190Z,953.83607
2023-02-06T13:46:46.693Z,937.54839
2023-02-06T13:51:48.268Z,906.5
2023-02-06T13:56:49.778Z,811.60563
2023-02-06T14:01:51.343Z,953.83607
2023-02-06T14:06:53.050Z,906.5
2023-02-06T14:11:54.556Z,891.69231
2023-02-06T14:16:56.578Z,836.75362
2023-02-06T14:21:58.275Z,824
2023-02-06T14:27:00.265Z,877.33333
2023-02-06T14:32:01.933Z,744
2023-02-06T14:37:03.684Z,765.33333
2023-02-06T14:42:05.173Z,765.33333
2023-02-06T14:47:06.910Z,836.75362
2023-02-06T14:52:08.406Z,660.27907
2023-02-06T14:57:09.856Z,686.16867
2023-02-06T15:02:11.356Z,686.16867
2023-02-06T15:07:13.021Z,542.05825
2023-02-06T15:12:14.481Z,652.04598
2023-02-06T15:17:16.247Z,677.33333
2023-02-06T15:22:17.827Z,723.74684
2023-02-06T15:27:19.408Z,686.16867
2023-02-06T15:32:21.096Z,668.70588
2023-02-06T15:37:22.770Z,677.33333
2023-02-06T15:42:24.209Z,733.74359
2023-02-06T15:47:26.129Z,660.27907
2023-02-06T15:52:27.683Z,636.13483
2023-02-06T15:57:29.376Z,704.49383
2023-02-06T16:02:31.491Z,652.04598
2023-02-06T16:07:33.617Z,644
2023-02-06T16:12:36.667Z,668.70588
2023-02-06T16:17:39.690Z,606.36559
2023-02-06T16:22:41.469Z,652.04598
2023-02-06T16:27:43.030Z,547.92157
2023-02-06T16:32:44.528Z,620.92308
2023-02-06T16:37:46.152Z,636.13483
2023-02-06T16:42:47.951Z,599.31915
2023-02-06T16:47:49.940Z,620.92308
2023-02-06T16:52:51.714Z,644
2023-02-06T16:57:53.575Z,660.27907
2023-02-06T17:02:55.507Z,660.27907
2023-02-06T17:07:57.554Z,644
2023-02-06T17:12:59.369Z,613.56522
2023-02-06T17:18:01.138Z,660.27907
2023-02-06T17:23:02.916Z,652.04598
2023-02-06T17:28:04.716Z,636.13483
2023-02-06T17:33:06.559Z,613.56522
2023-02-06T17:38:08.729Z,592.42105
2023-02-06T17:43:10.197Z,585.66667
2023-02-06T17:48:11.915Z,585.66667
2023-02-06T17:53:13.383Z,579.05155
2023-02-06T17:58:15.037Z,572.57143
2023-02-06T18:03:16.861Z,560
2023-02-06T18:08:18.528Z,553.90099
2023-02-06T18:13:19.981Z,560
2023-02-06T18:18:21.672Z,592.42105
2023-02-06T18:23:23.475Z,566.22222
2023-02-06T18:28:25.171Z,572.57143
2023-02-06T18:33:26.966Z,566.22222
2023-02-06T18:38:29.015Z,560
2023-02-06T18:43:30.772Z,572.57143
2023-02-06T18:48:32.498Z,566.22222
2023-02-06T18:53:34.353Z,566.22222
2023-02-06T18:58:36.137Z,553.90099
2023-02-06T19:03:38.267Z,542.05825
2023-02-06T19:08:43.548Z,553.90099
2023-02-06T19:13:46.533Z,553.90099
2023-02-06T19:18:48.320Z,560
2023-02-06T19:23:50.216Z,560
2023-02-06T19:28:51.985Z,560
2023-02-06T19:33:54.074Z,553.90099
2023-02-06T19:38:56.470Z,566.22222
2023-02-06T19:43:58.493Z,553.90099
2023-02-06T19:49:00.498Z,566.22222
2023-02-06T19:54:02.380Z,560
2023-02-06T19:59:04.143Z,560
2023-02-06T20:04:06.067Z,560
2023-02-06T20:09:08.008Z,553.90099
2023-02-06T20:14:09.784Z,560
2023-02-06T20:19:11.796Z,542.05825
2023-02-06T20:24:13.222Z,530.66667
2023-02-06T20:29:14.681Z,536.30769
2023-02-06T20:34:16.368Z,530.66667
2023-02-06T20:39:18.112Z,530.66667
2023-02-06T20:44:19.597Z,547.92157
2023-02-06T20:49:21.143Z,553.90099
2023-02-06T20:54:22.864Z,542.05825
2023-02-06T20:59:24.466Z,542.05825
2023-02-06T21:04:26.843Z,530.66667
2023-02-06T21:09:29.174Z,514.37037
2023-02-06T21:14:31.075Z,519.70093
2023-02-06T21:19:32.940Z,514.37037
2023-02-06T21:24:34.478Z,509.13761
2023-02-06T21:29:36.267Z,509.13761
2023-02-06T21:34:38.051Z,509.13761
2023-02-06T21:39:40.422Z,514.37037
2023-02-06T21:44:42.427Z,504
2023-02-06T21:49:44.223Z,498.95495
2023-02-06T21:54:46.126Z,504
2023-02-06T21:59:47.848Z,494
2023-02-06T22:04:49.755Z,484.35088
2023-02-06T22:09:52.778Z,470.49573
2023-02-06T22:14:54.466Z,470.49573
2023-02-06T22:19:56.026Z,466.0339
2023-02-06T22:24:57.832Z,475.03448
2023-02-06T22:29:59.697Z,466.0339
2023-02-06T22:35:01.570Z,479.65217
2023-02-06T22:40:03.552Z,484.35088
2023-02-06T22:45:05.366Z,489.13274
2023-02-06T22:50:07.366Z,494
2023-02-06T22:55:09.261Z,489.13274
2023-02-06T23:00:11.019Z,479.65217
2023-02-06T23:05:13.046Z,484.35088
2023-02-06T23:10:14.665Z,484.35088
2023-02-06T23:15:16.128Z,475.03448
2023-02-06T23:20:17.662Z,461.64706
2023-02-06T23:25:19.115Z,453.09091
2023-02-06T23:30:20.592Z,448.91803
2023-02-06T23:35:22.158Z,444.81301
2023-02-06T23:40:23.989Z,436.8
2023-02-06T23:45:25.657Z,432.88889
2023-02-06T23:50:27.502Z,432.88889
2023-02-06T23:55:28.970Z,440.77419
